createdAt,value
2022-10-09T00:01:05.564Z,6.30
2022-10-09T00:03:34.104Z,6.43
2022-10-09T00:06:02.268Z,6.23
2022-10-09T00:08:31.766Z,5.50
2022-10-09T00:10:59.805Z,5.90
2022-10-09T00:13:27.862Z,5.70
2022-10-09T00:15:55.916Z,6.10
2022-10-09T00:18:23.955Z,5.70
2022-10-09T00:20:51.989Z,5.97
2022-10-09T00:23:20.267Z,6.30
2022-10-09T00:25:54.017Z,6.30
2022-10-09T00:28:22.847Z,6.33
2022-10-09T00:30:51.554Z,6.60
2022-10-09T00:33:19.701Z,5.73
2022-10-09T00:35:48.100Z,6.10
2022-10-09T00:38:16.427Z,6.57
2022-10-09T00:40:44.507Z,6.63
2022-10-09T00:43:17.071Z,6.53
2022-10-09T00:45:48.748Z,6.23
2022-10-09T00:48:17.932Z,5.50
2022-10-09T00:50:47.997Z,6.80
2022-10-09T00:53:18.429Z,6.73
2022-10-09T00:55:46.760Z,6.10
2022-10-09T00:58:16.194Z,6.03
2022-10-09T01:00:44.285Z,7.07
2022-10-09T01:03:12.520Z,6.70
2022-10-09T01:05:50.161Z,5.00
2022-10-09T01:08:21.515Z,5.30
2022-10-09T01:10:54.570Z,4.90
2022-10-09T01:13:28.860Z,4.83
2022-10-09T01:15:59.154Z,3.60
2022-10-09T01:18:37.970Z,4.57
2022-10-09T01:21:09.437Z,4.27
2022-10-09T01:23:44.317Z,5.03
2022-10-09T01:26:30.914Z,5.23
2022-10-09T01:29:02.842Z,4.80
2022-10-09T01:31:32.991Z,4.30
2022-10-09T01:34:02.492Z,3.30
2022-10-09T01:36:30.964Z,3.00
2022-10-09T01:39:00.049Z,3.73
2022-10-09T01:41:28.480Z,3.00
2022-10-09T01:43:56.618Z,3.53
2022-10-09T01:46:26.958Z,3.43
2022-10-09T01:49:01.873Z,3.40
2022-10-09T01:51:36.690Z,3.37
2022-10-09T01:54:07.553Z,2.90
2022-10-09T01:56:36.795Z,3.40
2022-10-09T01:59:11.231Z,2.90
2022-10-09T02:01:43.971Z,3.17
2022-10-09T02:04:14.275Z,3.30
2022-10-09T02:06:43.352Z,3.37
2022-10-09T02:09:14.254Z,3.47
2022-10-09T02:11:43.569Z,3.67
2022-10-09T02:14:11.795Z,3.17
2022-10-09T02:16:43.123Z,3.73
2022-10-09T02:19:14.910Z,3.83
2022-10-09T02:21:46.443Z,3.03
2022-10-09T02:24:16.853Z,3.10
2022-10-09T02:26:44.860Z,2.90
2022-10-09T02:29:14.130Z,2.93
2022-10-09T02:31:44.351Z,3.00
2022-10-09T02:34:13.802Z,3.00
2022-10-09T02:36:41.900Z,2.80
2022-10-09T02:39:10.231Z,3.30
2022-10-09T02:41:38.325Z,3.03
2022-10-09T02:44:06.983Z,3.07
2022-10-09T02:46:35.452Z,3.23
2022-10-09T02:49:05.202Z,3.00
2022-10-09T02:51:33.320Z,3.00
2022-10-09T02:54:01.355Z,2.93
2022-10-09T02:56:29.769Z,2.40
2022-10-09T02:58:57.923Z,2.70
2022-10-09T03:01:26.288Z,2.63
2022-10-09T03:03:54.352Z,2.33
2022-10-09T03:06:25.529Z,2.27
2022-10-09T03:08:54.232Z,2.40
2022-10-09T03:11:23.826Z,2.30
2022-10-09T03:13:52.147Z,2.60
2022-10-09T03:16:22.171Z,2.60
2022-10-09T03:18:50.848Z,2.73
2022-10-09T03:21:20.585Z,2.60
2022-10-09T03:23:50.288Z,2.73
2022-10-09T03:26:19.641Z,2.60
2022-10-09T03:28:49.200Z,2.83
2022-10-09T03:31:33.353Z,2.60
2022-10-09T03:34:05.883Z,3.30
2022-10-09T03:36:33.859Z,2.90
2022-10-09T03:39:03.249Z,2.30
2022-10-09T03:41:31.271Z,2.00
2022-10-09T03:43:59.427Z,2.87
2022-10-09T03:46:27.532Z,2.60
2022-10-09T03:48:55.575Z,2.40
2022-10-09T03:51:23.597Z,2.77
2022-10-09T03:53:51.632Z,2.37
2022-10-09T03:56:21.045Z,2.70
2022-10-09T03:58:49.006Z,2.37
2022-10-09T04:01:17.118Z,2.50
2022-10-09T04:03:45.154Z,2.57
2022-10-09T04:06:13.357Z,2.97
2022-10-09T04:08:41.418Z,2.47
2022-10-09T04:11:09.509Z,3.40
2022-10-09T04:13:38.901Z,2.30
2022-10-09T04:16:09.616Z,2.60
2022-10-09T04:18:37.667Z,2.40
2022-10-09T04:21:05.665Z,2.70
2022-10-09T04:23:33.658Z,2.93
2022-10-09T04:26:01.878Z,2.50
2022-10-09T04:28:30.737Z,2.70
2022-10-09T04:31:00.397Z,2.17
2022-10-09T04:33:28.751Z,2.50
2022-10-09T04:35:57.139Z,3.13
2022-10-09T04:38:25.906Z,2.37
2022-10-09T04:40:57.695Z,2.70
2022-10-09T04:43:25.718Z,2.87
2022-10-09T04:45:53.882Z,2.03
2022-10-09T04:48:23.624Z,2.60
2022-10-09T04:50:51.780Z,2.30
2022-10-09T04:53:19.793Z,2.50
2022-10-09T04:55:47.836Z,2.30
2022-10-09T04:58:15.876Z,2.40
2022-10-09T05:00:45.298Z,2.60
2022-10-09T05:03:13.720Z,2.40
2022-10-09T05:05:43.098Z,2.40
2022-10-09T05:08:11.122Z,2.90
2022-10-09T05:10:39.140Z,3.07
2022-10-09T05:13:07.178Z,2.90
2022-10-09T05:15:37.731Z,3.00
2022-10-09T05:18:06.012Z,2.97
2022-10-09T05:20:34.019Z,2.37
2022-10-09T05:23:03.372Z,2.90
2022-10-09T05:25:31.401Z,3.00
2022-10-09T05:28:00.349Z,2.67
2022-10-09T05:30:28.412Z,2.13
2022-10-09T05:32:56.410Z,3.10
2022-10-09T05:35:24.404Z,2.63
2022-10-09T05:37:52.493Z,3.40
2022-10-09T05:40:25.780Z,2.70
2022-10-09T05:42:56.406Z,2.43
2022-10-09T05:45:24.622Z,2.87
2022-10-09T05:47:52.588Z,3.00
2022-10-09T05:50:20.624Z,2.90
2022-10-09T05:52:48.845Z,2.60
2022-10-09T05:55:17.190Z,2.37
2022-10-09T05:57:46.584Z,2.53
2022-10-09T06:00:15.420Z,2.77
2022-10-09T06:02:43.573Z,2.47
2022-10-09T06:05:11.673Z,3.10
2022-10-09T06:07:39.740Z,2.70
2022-10-09T06:10:08.227Z,2.63
2022-10-09T06:12:36.273Z,2.80
2022-10-09T06:15:06.092Z,2.87
2022-10-09T06:17:34.741Z,2.80
2022-10-09T06:20:02.798Z,2.93
2022-10-09T06:22:30.826Z,2.73
2022-10-09T06:24:58.874Z,2.80
2022-10-09T06:27:26.869Z,2.70
2022-10-09T06:29:56.042Z,2.70
2022-10-09T06:32:25.481Z,2.87
2022-10-09T06:34:53.599Z,2.37
2022-10-09T06:37:21.631Z,2.10
2022-10-09T06:39:49.680Z,2.70
2022-10-09T06:42:17.733Z,2.43
2022-10-09T06:44:52.451Z,2.80
2022-10-09T06:47:20.475Z,2.60
2022-10-09T06:49:49.921Z,2.83
2022-10-09T06:52:18.143Z,2.20
2022-10-09T06:54:46.221Z,2.30
2022-10-09T06:57:14.306Z,1.93
2022-10-09T06:59:42.357Z,2.13
2022-10-09T07:02:10.601Z,2.50
2022-10-09T07:04:38.622Z,2.90
2022-10-09T07:07:08.052Z,2.67
2022-10-09T07:09:36.148Z,2.10
2022-10-09T07:12:04.174Z,2.13
2022-10-09T07:14:32.255Z,2.00
2022-10-09T07:17:00.289Z,2.23
2022-10-09T07:19:28.292Z,2.27
2022-10-09T07:21:56.346Z,2.23
2022-10-09T07:24:25.770Z,1.73
2022-10-09T07:26:55.464Z,2.27
2022-10-09T07:29:23.593Z,2.17
2022-10-09T07:31:51.596Z,1.83
2022-10-09T07:34:19.604Z,1.97
2022-10-09T07:36:47.647Z,1.97
2022-10-09T07:39:15.714Z,2.90
2022-10-09T07:41:45.157Z,2.40
2022-10-09T07:44:13.159Z,3.10
2022-10-09T07:46:41.283Z,2.13
2022-10-09T07:49:09.338Z,2.40
2022-10-09T07:51:37.401Z,2.43
2022-10-09T07:54:05.888Z,2.20
2022-10-09T07:56:36.136Z,2.50
2022-10-09T07:59:07.028Z,2.20
2022-10-09T08:01:36.615Z,2.30
2022-10-09T08:04:05.499Z,2.87
2022-10-09T08:06:34.070Z,2.67
2022-10-09T08:09:03.329Z,2.40
2022-10-09T08:11:31.845Z,2.63
2022-10-09T08:13:59.940Z,2.27
2022-10-09T08:16:29.732Z,2.47
2022-10-09T08:18:59.543Z,2.60
2022-10-09T08:21:29.164Z,2.53
2022-10-09T08:23:58.882Z,2.77
2022-10-09T08:26:28.220Z,3.07
2022-10-09T08:28:57.571Z,2.43
2022-10-09T08:31:26.186Z,2.57
2022-10-09T08:33:56.541Z,3.10
2022-10-09T08:36:24.868Z,2.50
2022-10-09T08:38:53.282Z,2.97
2022-10-09T08:41:28.209Z,3.23
2022-10-09T08:44:04.745Z,2.90
2022-10-09T08:46:36.654Z,2.40
2022-10-09T08:49:06.380Z,2.90
2022-10-09T08:51:37.590Z,2.70
2022-10-09T08:54:07.841Z,2.60
2022-10-09T08:56:36.491Z,2.63
2022-10-09T08:59:04.508Z,2.57
2022-10-09T09:01:36.657Z,2.83
2022-10-09T09:04:23.519Z,2.83
2022-10-09T09:06:58.295Z,3.00
2022-10-09T09:09:32.795Z,2.70
2022-10-09T09:12:05.601Z,2.60
2022-10-09T09:14:47.543Z,2.90
2022-10-09T09:17:20.557Z,2.57
2022-10-09T09:19:57.952Z,2.70
2022-10-09T09:22:27.091Z,2.73
2022-10-09T09:24:57.451Z,3.13
2022-10-09T09:27:29.115Z,3.03
2022-10-09T09:30:00.473Z,2.70
2022-10-09T09:32:30.763Z,2.43
2022-10-09T09:35:04.759Z,2.60
2022-10-09T09:37:32.866Z,3.63
2022-10-09T09:42:49.516Z,2.93
2022-10-09T09:45:20.370Z,2.90
2022-10-09T09:47:51.231Z,2.40
2022-10-09T09:50:47.107Z,3.03
2022-10-09T09:53:27.011Z,2.63
2022-10-09T09:55:56.030Z,2.40
2022-10-09T09:58:24.363Z,3.10
2022-10-09T10:00:56.222Z,2.80
2022-10-09T10:03:25.500Z,2.47
2022-10-09T10:05:55.060Z,2.87
2022-10-09T10:08:25.269Z,3.20
2022-10-09T10:10:54.516Z,2.90
2022-10-09T10:13:24.481Z,2.30
2022-10-09T10:15:55.071Z,2.20
2022-10-09T10:18:24.381Z,2.50
2022-10-09T10:20:55.790Z,2.50
2022-10-09T10:23:33.351Z,2.47
2022-10-09T10:26:04.436Z,2.70
2022-10-09T10:28:36.512Z,3.07
2022-10-09T10:31:07.346Z,2.30
2022-10-09T10:33:37.751Z,2.40
2022-10-09T10:36:10.001Z,2.10
2022-10-09T10:38:42.147Z,2.80
2022-10-09T10:41:13.372Z,2.20
2022-10-09T10:43:44.002Z,3.03
2022-10-09T10:46:18.820Z,2.77
2022-10-09T10:48:48.167Z,2.63
2022-10-09T10:51:35.023Z,2.53
2022-10-09T10:54:14.655Z,2.23
2022-10-09T10:56:46.820Z,2.17
2022-10-09T10:59:30.703Z,2.50
2022-10-09T11:02:22.228Z,2.43
2022-10-09T11:04:56.569Z,2.13
2022-10-09T11:07:32.385Z,2.03
2022-10-09T11:10:08.678Z,2.37
2022-10-09T11:12:57.776Z,2.90
2022-10-09T11:15:34.303Z,2.20
2022-10-09T11:18:10.313Z,1.80
2022-10-09T11:20:49.897Z,1.90
2022-10-09T11:23:27.953Z,1.90
2022-10-09T11:26:00.259Z,2.10
2022-10-09T11:28:30.043Z,2.13
2022-10-09T11:31:02.797Z,1.30
2022-10-09T11:33:35.332Z,1.87
2022-10-09T11:36:06.809Z,1.90
2022-10-09T11:38:38.469Z,2.10
2022-10-09T11:41:07.690Z,1.53
2022-10-09T11:43:47.787Z,1.97
2022-10-09T11:46:22.730Z,2.00
2022-10-09T11:48:56.170Z,1.80
2022-10-09T11:51:30.773Z,1.93
2022-10-09T11:54:00.610Z,2.33
2022-10-09T11:56:30.659Z,1.43
2022-10-09T11:59:00.299Z,1.80
2022-10-09T12:01:32.923Z,2.30
2022-10-09T12:04:03.737Z,1.83
2022-10-09T12:06:32.110Z,1.83
2022-10-09T12:09:05.178Z,1.73
2022-10-09T12:11:33.818Z,1.53
2022-10-09T12:14:04.404Z,2.50
2022-10-09T12:16:38.488Z,1.90
2022-10-09T12:19:16.952Z,2.30
2022-10-09T12:21:50.172Z,2.10
2022-10-09T12:24:23.051Z,1.87
2022-10-09T12:26:52.511Z,1.70
2022-10-09T12:29:25.946Z,2.20
2022-10-09T12:31:57.148Z,1.90
2022-10-09T12:34:27.101Z,1.57
2022-10-09T12:37:13.834Z,1.53
2022-10-09T12:39:43.942Z,2.03
2022-10-09T12:42:19.464Z,1.80
2022-10-09T12:44:48.078Z,2.33
2022-10-09T12:47:20.037Z,2.07
2022-10-09T12:50:01.962Z,1.60
2022-10-09T12:52:31.580Z,1.70
2022-10-09T12:55:02.619Z,1.87
2022-10-09T12:57:30.832Z,1.67
2022-10-09T12:59:59.209Z,1.60
2022-10-09T13:02:27.381Z,1.73
2022-10-09T13:04:58.244Z,1.97
2022-10-09T13:07:29.220Z,1.77
2022-10-09T13:10:05.347Z,1.87
2022-10-09T13:12:33.849Z,2.10
2022-10-09T13:15:03.388Z,2.10
2022-10-09T13:17:34.230Z,1.63
2022-10-09T13:20:05.438Z,1.50
2022-10-09T13:22:35.960Z,1.97
2022-10-09T13:25:06.774Z,2.33
2022-10-09T13:27:39.817Z,1.90
2022-10-09T13:30:11.748Z,2.00
2022-10-09T13:32:39.810Z,2.10
2022-10-09T13:35:08.300Z,2.00
2022-10-09T13:37:36.327Z,1.40
2022-10-09T13:40:06.882Z,1.87
2022-10-09T13:42:37.648Z,1.70
2022-10-09T13:45:06.126Z,1.47
2022-10-09T13:47:34.215Z,2.07
2022-10-09T13:50:02.286Z,1.80
2022-10-09T13:52:30.358Z,1.30
2022-10-09T13:54:58.438Z,1.90
2022-10-09T13:57:27.886Z,2.07
2022-10-09T13:59:55.913Z,2.43
2022-10-09T14:02:23.940Z,1.90
2022-10-09T14:04:51.990Z,2.20
2022-10-09T14:07:20.051Z,1.50
2022-10-09T14:09:48.087Z,1.70
2022-10-09T14:12:16.127Z,1.97
2022-10-09T14:14:45.532Z,2.20
2022-10-09T14:17:13.526Z,1.90
2022-10-09T14:19:41.533Z,1.80
2022-10-09T14:22:09.571Z,2.00
2022-10-09T14:24:38.199Z,1.70
2022-10-09T14:27:06.285Z,1.50
2022-10-09T14:29:34.402Z,1.80
2022-10-09T14:32:03.856Z,1.60
2022-10-09T14:34:31.894Z,1.40
2022-10-09T14:37:00.008Z,1.83
2022-10-09T14:39:28.067Z,1.60
2022-10-09T14:41:56.147Z,1.77
2022-10-09T14:44:24.934Z,1.47
2022-10-09T14:46:52.968Z,1.43
2022-10-09T14:49:22.357Z,1.60
2022-10-09T14:51:50.410Z,1.53
2022-10-09T14:54:18.482Z,0.90
2022-10-09T14:56:46.559Z,1.50
2022-10-09T14:59:14.694Z,1.47
2022-10-09T15:01:42.728Z,1.20
2022-10-09T15:04:10.799Z,1.30
2022-10-09T15:06:40.197Z,1.50
2022-10-09T15:09:08.281Z,1.30
2022-10-09T15:11:36.925Z,1.60
2022-10-09T15:14:05.817Z,1.60
2022-10-09T15:16:34.067Z,1.30
2022-10-09T15:19:02.161Z,1.37
2022-10-09T15:21:31.849Z,1.20
2022-10-09T15:24:02.354Z,1.10
2022-10-09T15:26:32.924Z,1.50
2022-10-09T15:29:02.774Z,1.10
2022-10-09T15:31:32.155Z,1.60
2022-10-09T15:34:02.179Z,1.20
2022-10-09T15:36:32.475Z,1.33
2022-10-09T15:39:05.696Z,1.30
2022-10-09T15:41:35.688Z,1.20
2022-10-09T15:44:05.655Z,1.10
2022-10-09T15:46:33.898Z,1.40
2022-10-09T15:49:01.952Z,1.57
2022-10-09T15:51:33.130Z,1.03
2022-10-09T15:54:02.841Z,1.63
2022-10-09T15:56:31.763Z,1.70
2022-10-09T15:59:01.904Z,1.33
2022-10-09T16:01:32.945Z,1.13
2022-10-09T16:04:01.114Z,1.33
2022-10-09T16:06:29.174Z,1.33
2022-10-09T16:08:57.786Z,1.60
2022-10-09T16:11:27.253Z,1.83
2022-10-09T16:13:56.566Z,1.27
2022-10-09T16:16:27.653Z,1.50
2022-10-09T16:18:56.798Z,1.63
2022-10-09T16:21:26.586Z,1.83
2022-10-09T16:23:58.742Z,1.50
2022-10-09T16:26:30.549Z,1.43
2022-10-09T16:29:00.677Z,1.83
2022-10-09T16:31:31.361Z,2.13
2022-10-09T16:33:59.787Z,1.40
2022-10-09T16:36:29.088Z,1.73
2022-10-09T16:38:57.306Z,1.57
2022-10-09T16:41:25.743Z,1.77
2022-10-09T16:43:57.320Z,1.67
2022-10-09T16:46:27.057Z,1.33
2022-10-09T16:48:56.265Z,1.63
2022-10-09T16:51:25.921Z,2.00
2022-10-09T16:53:55.519Z,1.53
2022-10-09T16:56:25.080Z,1.70
2022-10-09T16:58:57.493Z,1.73
2022-10-09T17:01:25.937Z,2.13
2022-10-09T17:03:55.172Z,2.03
2022-10-09T17:06:24.630Z,2.43
2022-10-09T17:08:53.449Z,2.50
2022-10-09T17:11:22.743Z,2.63
2022-10-09T17:13:51.467Z,2.00
2022-10-09T17:16:25.609Z,2.40
2022-10-09T17:18:54.396Z,2.00
2022-10-09T17:21:23.214Z,2.10
2022-10-09T17:23:55.101Z,2.20
2022-10-09T17:26:24.891Z,1.83
2022-10-09T17:28:54.074Z,2.07
2022-10-09T17:31:25.573Z,1.90
2022-10-09T17:33:56.508Z,2.20
2022-10-09T17:36:28.696Z,1.70
2022-10-09T17:38:57.770Z,2.50
2022-10-09T17:41:28.058Z,2.03
2022-10-09T17:43:58.140Z,2.00
2022-10-09T17:46:29.243Z,2.00
2022-10-09T17:48:58.863Z,2.63
2022-10-09T17:51:28.653Z,2.50
2022-10-09T17:53:59.591Z,2.57
2022-10-09T17:56:27.786Z,2.23
2022-10-09T17:58:57.265Z,2.10
2022-10-09T18:01:27.444Z,2.33
2022-10-09T18:03:56.073Z,2.20
2022-10-09T18:06:25.371Z,1.97
2022-10-09T18:08:55.938Z,2.03
2022-10-09T18:11:27.038Z,1.73
2022-10-09T18:13:55.540Z,2.30
2022-10-09T18:16:34.934Z,1.60
2022-10-09T18:19:09.037Z,1.80
2022-10-09T18:21:40.448Z,2.40
2022-10-09T18:24:09.399Z,2.80
2022-10-09T18:26:39.045Z,2.60
2022-10-09T18:29:11.514Z,2.57
2022-10-09T18:31:40.018Z,2.80
2022-10-09T18:34:11.819Z,2.40
2022-10-09T18:36:40.539Z,2.20
2022-10-09T18:39:10.721Z,2.23
2022-10-09T18:41:40.097Z,2.20
2022-10-09T18:44:12.911Z,2.23
2022-10-09T18:46:45.093Z,1.80
2022-10-09T18:49:18.294Z,2.20
2022-10-09T18:51:47.481Z,2.50
2022-10-09T18:54:18.672Z,2.27
2022-10-09T18:56:48.403Z,2.37
2022-10-09T18:59:20.658Z,2.43
2022-10-09T19:01:49.144Z,2.50
2022-10-09T19:04:19.923Z,2.53
2022-10-09T19:06:48.773Z,2.67
2022-10-09T19:09:17.132Z,2.30
2022-10-09T19:11:45.738Z,2.40
2022-10-09T19:14:15.827Z,2.47
2022-10-09T19:16:43.919Z,2.60
2022-10-09T19:19:13.109Z,1.90
2022-10-09T19:21:44.040Z,2.83
2022-10-09T19:24:12.808Z,2.70
2022-10-09T19:26:41.942Z,2.70
2022-10-09T19:29:10.337Z,2.20
2022-10-09T19:31:38.672Z,2.70
2022-10-09T19:34:07.150Z,2.60
2022-10-09T19:36:36.879Z,3.10
2022-10-09T19:39:08.589Z,3.10
2022-10-09T19:41:37.843Z,3.27
2022-10-09T19:44:06.459Z,2.60
2022-10-09T19:46:37.544Z,2.57
2022-10-09T19:49:06.635Z,2.60
2022-10-09T19:51:37.051Z,2.80
2022-10-09T19:54:08.231Z,2.60
2022-10-09T19:56:37.616Z,2.43
2022-10-09T19:59:09.364Z,2.60
2022-10-09T20:01:40.183Z,2.30
2022-10-09T20:04:10.220Z,3.13
2022-10-09T20:06:39.763Z,2.13
2022-10-09T20:09:11.893Z,2.30
2022-10-09T20:11:40.081Z,2.20
2022-10-09T20:14:09.317Z,2.00
2022-10-09T20:16:37.798Z,2.40
2022-10-09T20:19:06.790Z,2.57
2022-10-09T20:21:35.300Z,2.20
2022-10-09T20:24:03.714Z,2.50
2022-10-09T20:26:33.288Z,2.33
2022-10-09T20:29:01.379Z,1.80
2022-10-09T20:31:30.314Z,2.47
2022-10-09T20:33:59.582Z,2.03
2022-10-09T20:36:30.104Z,2.37
2022-10-09T20:38:58.799Z,2.33
2022-10-09T20:41:28.609Z,2.73
2022-10-09T20:44:00.348Z,2.23
2022-10-09T20:46:29.626Z,2.33
2022-10-09T20:48:57.966Z,2.00
2022-10-09T20:51:26.347Z,2.57
2022-10-09T20:53:55.951Z,2.87
2022-10-09T20:56:25.552Z,2.43
2022-10-09T20:58:53.990Z,2.57
2022-10-09T21:01:23.507Z,2.80
2022-10-09T21:03:51.899Z,3.03
2022-10-09T21:06:21.656Z,2.70
2022-10-09T21:08:49.881Z,3.30
2022-10-09T21:11:18.685Z,3.30
2022-10-09T21:13:47.754Z,3.40
2022-10-09T21:16:18.917Z,3.83
2022-10-09T21:18:48.496Z,3.03
2022-10-09T21:21:19.220Z,3.30
2022-10-09T21:23:47.387Z,3.40
2022-10-09T21:26:16.393Z,2.80
2022-10-09T21:28:45.203Z,3.10
2022-10-09T21:31:16.348Z,3.20
2022-10-09T21:33:44.549Z,3.17
2022-10-09T21:36:33.793Z,2.90
2022-10-09T21:39:01.895Z,2.90
2022-10-09T21:41:29.977Z,2.67
2022-10-09T21:43:58.009Z,3.10
2022-10-09T21:46:26.125Z,2.97
2022-10-09T21:48:54.416Z,2.70
2022-10-09T21:51:23.853Z,3.50
2022-10-09T21:53:53.509Z,3.37
2022-10-09T21:56:21.982Z,3.13
2022-10-09T21:58:50.376Z,3.60
2022-10-09T22:01:18.843Z,4.03
2022-10-09T22:03:47.114Z,3.27
2022-10-09T22:06:19.069Z,3.10
2022-10-09T22:08:49.004Z,3.40
2022-10-09T22:11:17.454Z,3.70
2022-10-09T22:13:45.551Z,3.77
2022-10-09T22:16:15.150Z,3.17
2022-10-09T22:18:43.267Z,3.27
2022-10-09T22:21:12.948Z,3.50
2022-10-09T22:23:41.316Z,3.73
2022-10-09T22:26:13.838Z,3.70
2022-10-09T22:28:42.121Z,3.37
2022-10-09T22:31:13.622Z,3.47
2022-10-09T22:33:42.243Z,3.57
2022-10-09T22:36:12.018Z,3.60
2022-10-09T22:38:40.533Z,3.50
2022-10-09T22:41:12.122Z,3.30
2022-10-09T22:43:42.085Z,3.90
2022-10-09T22:46:11.687Z,3.77
2022-10-09T22:48:40.390Z,3.53
2022-10-09T22:51:12.941Z,3.03
2022-10-09T22:53:41.908Z,2.90
2022-10-09T22:56:14.669Z,3.47
2022-10-09T22:58:42.746Z,3.03
2022-10-09T23:01:13.587Z,3.30
2022-10-09T23:03:41.673Z,3.20
2022-10-09T23:06:10.562Z,3.30
2022-10-09T23:08:39.526Z,3.20
2022-10-09T23:11:07.958Z,3.07
2022-10-09T23:13:37.603Z,3.77
2022-10-09T23:16:08.167Z,3.17
2022-10-09T23:18:37.241Z,4.30
2022-10-09T23:21:06.263Z,3.97
2022-10-09T23:23:34.695Z,4.13
2022-10-09T23:26:05.124Z,4.13
2022-10-09T23:28:33.391Z,4.87
2022-10-09T23:31:03.519Z,5.20
2022-10-09T23:33:31.610Z,5.10
2022-10-09T23:35:59.726Z,5.27
2022-10-09T23:38:27.783Z,4.80
2022-10-09T23:40:57.101Z,5.07
2022-10-09T23:43:25.276Z,4.97
2022-10-09T23:45:55.778Z,4.30
2022-10-09T23:48:25.389Z,4.00
2022-10-09T23:50:54.380Z,4.87
2022-10-09T23:53:23.569Z,3.60
2022-10-09T23:55:51.715Z,3.17
2022-10-09T23:58:21.158Z,3.90
